Rensselaer, Missouri
Current Conditions -  °F | °C
As of 10:54 AM on Sunday 23 Nov 2014 (Local Time) from KUIN Reporting Station
Moderate Rain Moderate Rain  
Wind Chill: 52°   Ceiling: 700
Heat Index: 52°   Visibility: 1.2mi
Dew Point: 50°   Wind: 13mph
Humidity: 93%   Direction: 160°SSE
Pressure: 29.54"   Gusts: NA
Location:  39.7145°N, 91.4209°W
Report Text: KUIN 231654Z AUTO 16011KT 1 1/4SM RA BR BKN007 BKN020 11/10 A2954 RMK AO2 SLP002 P0017 T01110100
Loading
Personal Weather Stations






























Interactive Weather Map New forecast layout! Learn more

10-Day Weather Forecast

Advertisements
Track Severe Weather on mobile